Time;durP1;ratioP1;P1;durP2;ratioP2;P2;SDS_P1;SDS_P2;PMS_P1;PMS_P2;Temp;Humidity;BMP_temperature;BMP_pressure;BME280_temperature;BME280_humidity;BME280_pressure;Samples;Min_cycle;Max_cycle;Signal;HPM_P1;HPM_P2
2022/12/26 00:01:51;;;;;;;4.80;3.70;;;13.90;99.90;;;;;;5011644;28;20439;-67
2022/12/26 00:04:17;;;;;;;4.33;3.87;;;14.00;99.90;;;;;;5003566;28;21116;-66
2022/12/26 00:06:43;;;;;;;7.70;3.87;;;13.90;99.90;;;;;;5007003;28;20458;-68
2022/12/26 00:09:09;;;;;;;4.23;3.40;;;13.90;99.90;;;;;;5010363;28;20754;-69
2022/12/26 00:11:35;;;;;;;4.93;4.17;;;14.00;99.90;;;;;;5011640;28;20188;-68
2022/12/26 00:14:05;;;;;;;4.47;3.27;;;13.90;99.90;;;;;;5004129;28;20230;-66
2022/12/26 00:16:31;;;;;;;5.17;3.77;;;13.90;99.90;;;;;;5009253;28;20471;-67
2022/12/26 00:18:56;;;;;;;4.10;3.40;;;13.90;99.90;;;;;;5009425;28;20443;-68
2022/12/26 00:21:25;;;;;;;5.20;3.60;;;13.80;99.90;;;;;;5006035;28;20517;-69
2022/12/26 00:23:51;;;;;;;4.83;3.80;;;13.90;99.90;;;;;;5007138;28;20271;-67
2022/12/26 00:26:19;;;;;;;5.23;3.40;;;13.90;99.90;;;;;;5011379;28;20546;-68
2022/12/26 00:28:45;;;;;;;4.20;3.27;;;13.80;99.90;;;;;;5008699;28;20168;-68
2022/12/26 00:31:13;;;;;;;3.80;3.33;;;13.80;99.90;;;;;;5011531;28;20900;-68
2022/12/26 00:33:39;;;;;;;5.73;4.00;;;13.80;99.90;;;;;;5010771;28;20183;-68
2022/12/26 00:36:08;;;;;;;3.57;2.93;;;13.80;99.90;;;;;;5010927;28;20474;-66
2022/12/26 00:38:35;;;;;;;4.00;3.40;;;13.80;99.90;;;;;;5021004;28;20196;-66
2022/12/26 00:41:01;;;;;;;3.70;3.20;;;13.90;99.90;;;;;;5012565;28;20487;-68
2022/12/26 00:43:26;;;;;;;6.93;3.80;;;13.90;99.90;;;;;;5006072;28;20490;-68
2022/12/26 00:45:52;;;;;;;3.80;3.00;;;13.90;99.90;;;;;;5012069;28;20251;-67
2022/12/26 00:48:18;;;;;;;6.13;3.63;;;13.90;99.90;;;;;;5012665;28;20192;-67
2022/12/26 00:50:43;;;;;;;5.00;3.40;;;13.90;99.90;;;;;;5015019;28;20181;-67
2022/12/26 00:53:09;;;;;;;5.37;3.30;;;13.90;99.90;;;;;;5016301;28;20600;-68
2022/12/26 00:55:34;;;;;;;5.80;3.20;;;13.90;99.90;;;;;;5026658;28;20227;-67
2022/12/26 00:58:00;;;;;;;5.63;3.47;;;14.00;99.90;;;;;;5015465;28;20207;-67
2022/12/26 01:00:26;;;;;;;4.90;3.20;;;14.00;99.90;;;;;;5013150;28;21107;-67
2022/12/26 01:03:02;;;;;;;5.10;3.70;;;13.90;99.90;;;;;;5019080;28;20649;-70
2022/12/26 01:05:28;;;;;;;3.70;3.27;;;13.90;99.90;;;;;;5012013;28;20224;-69
2022/12/26 01:07:54;;;;;;;3.47;3.17;;;13.90;99.90;;;;;;5014690;28;20435;-66
2022/12/26 01:10:20;;;;;;;4.40;3.47;;;14.00;99.90;;;;;;5010692;28;20177;-66
2022/12/26 01:12:46;;;;;;;6.60;3.90;;;14.00;99.90;;;;;;5015421;28;20496;-66
2022/12/26 01:15:11;;;;;;;5.07;3.00;;;14.00;99.90;;;;;;5012898;28;20262;-66
2022/12/26 01:17:37;;;;;;;4.10;2.87;;;14.10;99.90;;;;;;5011586;28;20176;-67
2022/12/26 01:20:03;;;;;;;3.77;3.10;;;14.10;99.90;;;;;;5011936;28;20213;-67
2022/12/26 01:22:28;;;;;;;5.03;2.70;;;14.20;99.90;;;;;;5016447;28;20254;-67
2022/12/26 01:24:57;;;;;;;3.07;2.70;;;14.30;99.90;;;;;;5018377;28;20484;-67
2022/12/26 01:27:24;;;;;;;3.60;3.10;;;14.30;99.90;;;;;;5017047;28;20216;-67
2022/12/26 01:29:52;;;;;;;4.77;3.27;;;14.30;99.90;;;;;;5011715;28;20789;-66
2022/12/26 01:32:17;;;;;;;4.47;3.37;;;14.40;99.90;;;;;;5012594;28;20524;-65
2022/12/26 01:34:43;;;;;;;7.20;3.10;;;14.40;99.90;;;;;;5015133;28;20463;-66
2022/12/26 01:37:11;;;;;;;3.97;3.30;;;14.40;99.90;;;;;;5016573;28;20834;-67
2022/12/26 01:39:37;;;;;;;3.97;2.83;;;14.40;99.90;;;;;;5009745;28;20247;-66
2022/12/26 01:42:08;;;;;;;4.90;3.20;;;14.30;99.90;;;;;;5011280;28;20439;-66
2022/12/26 01:44:58;;;;;;;3.37;2.77;;;14.30;99.90;;;;;;5018480;28;20211;-66
2022/12/26 01:47:36;;;;;;;3.80;2.63;;;14.30;99.90;;;;;;5015584;28;20459;-66
2022/12/26 01:50:04;;;;;;;4.33;2.93;;;14.40;99.90;;;;;;5015166;28;20442;-67
2022/12/26 01:52:41;;;;;;;5.23;3.10;;;14.40;99.90;;;;;;5013398;28;20795;-66
2022/12/26 01:55:10;;;;;;;4.53;3.03;;;14.40;99.90;;;;;;5011082;28;20466;-66
2022/12/26 01:57:44;;;;;;;3.13;2.70;;;14.50;99.90;;;;;;5016589;28;20497;-66
2022/12/26 02:00:10;;;;;;;4.93;3.30;;;14.50;99.90;;;;;;5013992;28;20512;-66
2022/12/26 02:05:33;;;;;;;6.00;3.23;;;14.60;99.90;;;;;;5013122;28;21168;-67
2022/12/26 02:08:03;;;;;;;4.03;3.37;;;14.60;99.90;;;;;;5013302;28;20922;-68
2022/12/26 02:10:34;;;;;;;6.77;3.33;;;14.60;99.90;;;;;;5015380;28;20430;-67
2022/12/26 02:13:00;;;;;;;3.57;2.83;;;14.50;99.90;;;;;;5012335;28;20989;-67
2022/12/26 02:15:27;;;;;;;5.37;3.00;;;14.50;99.90;;;;;;5014927;28;20463;-67
2022/12/26 02:17:53;;;;;;;8.43;3.67;;;14.60;99.90;;;;;;5019265;28;20465;-68
2022/12/26 02:20:23;;;;;;;4.63;3.77;;;14.60;99.90;;;;;;5012931;28;20443;-68
2022/12/26 02:23:20;;;;;;;4.33;3.00;;;14.70;99.90;;;;;;5016019;28;20185;-68
2022/12/26 02:25:54;;;;;;;3.60;2.70;;;14.60;99.90;;;;;;5017378;28;20461;-68
2022/12/26 02:28:52;;;;;;;4.27;3.27;;;14.50;99.90;;;;;;5025293;28;20435;-68
2022/12/26 02:31:26;;;;;;;3.40;2.77;;;14.50;99.90;;;;;;5017884;28;20439;-67
2022/12/26 02:34:01;;;;;;;4.00;3.30;;;14.40;99.90;;;;;;5015730;28;20449;-68
2022/12/26 02:36:42;;;;;;;4.67;3.33;;;14.40;99.90;;;;;;5017919;28;20501;-68
2022/12/26 02:39:51;;;;;;;3.97;3.30;;;14.40;99.90;;;;;;5017085;28;20434;-68
2022/12/26 02:42:26;;;;;;;3.80;3.20;;;14.50;99.90;;;;;;5019750;28;20434;-68
2022/12/26 02:47:56;;;;;;;4.00;3.00;;;14.60;99.90;;;;;;5018065;28;21008;-67
2022/12/26 03:14:32;;;;;;;4.20;3.20;;;14.50;99.90;;;;;;5016162;28;20510;-67
2022/12/26 03:17:20;;;;;;;3.63;3.27;;;14.60;99.90;;;;;;5018423;28;20495;-67
2022/12/26 03:20:01;;;;;;;3.43;3.00;;;14.60;99.90;;;;;;5013793;28;20436;-67
2022/12/26 03:22:45;;;;;;;4.60;2.90;;;14.60;99.90;;;;;;5017033;28;20439;-67
2022/12/26 03:28:08;;;;;;;4.07;3.30;;;14.60;99.90;;;;;;5017590;28;20454;-67
2022/12/26 03:30:49;;;;;;;3.87;3.20;;;14.50;99.90;;;;;;5022386;28;20439;-67
2022/12/26 03:36:04;;;;;;;4.30;2.90;;;14.60;99.90;;;;;;5018253;28;20808;-67
2022/12/26 03:38:56;;;;;;;6.10;3.20;;;14.60;99.90;;;;;;5017970;28;20533;-68
2022/12/26 04:20:42;;;;;;;5.03;3.40;;;14.70;99.90;;;;;;5017052;28;22389;-67
2022/12/26 04:46:05;;;;;;;3.70;2.90;;;14.70;99.90;;;;;;5017478;28;20458;-67
2022/12/26 04:51:15;;;;;;;9.30;3.20;;;14.70;99.90;;;;;;5021842;28;20458;-68
2022/12/26 04:53:41;;;;;;;6.73;3.03;;;14.80;99.90;;;;;;5022897;28;20455;-68
2022/12/26 04:56:08;;;;;;;5.10;3.03;;;14.80;99.90;;;;;;5017968;28;20270;-67
2022/12/26 04:58:33;;;;;;;4.10;3.03;;;14.80;99.90;;;;;;5013199;28;20256;-68
2022/12/26 05:09:35;;;;;;;3.00;2.23;;;14.90;99.90;;;;;;5019017;28;20469;-67
2022/12/26 05:12:07;;;;;;;4.77;3.17;;;14.80;99.90;;;;;;5013809;28;20541;-68
2022/12/26 05:14:34;;;;;;;3.10;2.67;;;14.50;99.90;;;;;;5015607;28;21064;-67
2022/12/26 05:30:51;;;;;;;2.90;2.60;;;14.20;99.90;;;;;;5014963;28;20528;-67
2022/12/26 05:36:00;;;;;;;4.57;2.90;;;14.10;99.90;;;;;;5018861;28;20223;-67
2022/12/26 05:38:26;;;;;;;3.80;3.40;;;14.00;99.90;;;;;;5016609;28;20462;-67
2022/12/26 05:40:51;;;;;;;4.83;3.40;;;14.00;99.90;;;;;;5012451;28;20329;-68
2022/12/26 05:43:18;;;;;;;3.93;3.27;;;14.00;99.90;;;;;;5014734;28;20180;-67
2022/12/26 05:45:44;;;;;;;3.53;2.93;;;14.00;99.90;;;;;;5011281;28;20203;-68
2022/12/26 05:48:09;;;;;;;4.20;3.00;;;14.00;99.90;;;;;;5012435;28;20435;-67
2022/12/26 05:50:35;;;;;;;4.57;3.30;;;14.10;99.90;;;;;;5014245;28;20188;-67
2022/12/26 05:53:02;;;;;;;4.10;3.10;;;14.00;99.90;;;;;;5016481;28;20224;-67
2022/12/26 05:55:28;;;;;;;4.07;3.10;;;14.10;99.90;;;;;;5012533;28;20220;-67
2022/12/26 05:57:54;;;;;;;3.43;3.10;;;14.00;99.90;;;;;;5016653;28;20870;-67
2022/12/26 06:00:20;;;;;;;3.30;2.90;;;14.00;99.90;;;;;;5014701;28;20264;-67
2022/12/26 06:02:45;;;;;;;4.03;3.30;;;14.00;99.90;;;;;;5016106;28;20599;-67
2022/12/26 06:05:11;;;;;;;4.60;3.20;;;14.10;99.90;;;;;;5015885;28;20196;-67
2022/12/26 06:07:36;;;;;;;4.60;2.97;;;14.10;99.90;;;;;;5021650;28;20496;-67
2022/12/26 06:10:03;;;;;;;4.43;3.37;;;14.00;99.90;;;;;;5017782;28;20736;-67
2022/12/26 06:12:28;;;;;;;5.07;3.53;;;14.00;99.90;;;;;;5020071;28;20191;-67
2022/12/26 06:14:54;;;;;;;5.43;3.50;;;14.00;99.90;;;;;;5018900;28;20470;-66
2022/12/26 06:17:19;;;;;;;4.93;2.80;;;14.00;99.90;;;;;;5017783;28;20208;-67
2022/12/26 06:19:45;;;;;;;5.10;3.20;;;14.00;99.90;;;;;;5017064;28;20187;-67
2022/12/26 06:22:10;;;;;;;5.60;3.60;;;14.00;99.90;;;;;;5020081;28;20263;-67
2022/12/26 06:24:36;;;;;;;4.37;2.93;;;14.00;99.90;;;;;;5014936;28;20594;-67
2022/12/26 06:27:02;;;;;;;6.70;3.47;;;14.10;99.90;;;;;;5018588;28;21019;-67
2022/12/26 06:29:27;;;;;;;3.90;3.30;;;14.00;99.90;;;;;;5017019;28;20189;-68
2022/12/26 06:31:53;;;;;;;5.07;3.40;;;14.10;99.90;;;;;;5016673;28;20188;-67
2022/12/26 06:34:18;;;;;;;4.83;3.50;;;14.10;99.90;;;;;;5018787;28;20735;-68
2022/12/26 06:36:44;;;;;;;5.50;3.77;;;14.20;99.90;;;;;;5016873;28;20412;-67
2022/12/26 06:39:09;;;;;;;5.47;3.20;;;14.30;99.90;;;;;;5017159;28;20184;-67
2022/12/26 06:41:35;;;;;;;3.60;3.10;;;14.20;99.90;;;;;;5018265;28;20611;-67
2022/12/26 06:44:01;;;;;;;4.73;3.20;;;14.30;99.90;;;;;;5016513;28;20681;-68
2022/12/26 06:46:26;;;;;;;3.90;3.17;;;14.10;99.90;;;;;;5015510;28;20208;-67
2022/12/26 06:48:52;;;;;;;4.70;3.43;;;14.00;99.90;;;;;;5018880;28;20188;-68
2022/12/26 06:51:24;;;;;;;7.00;3.57;;;13.80;99.90;;;;;;5017332;28;20292;-67
2022/12/26 06:53:51;;;;;;;5.10;4.00;;;13.80;99.90;;;;;;5017238;28;20951;-66
2022/12/26 06:56:21;;;;;;;5.33;4.03;;;13.80;99.90;;;;;;5014537;28;20475;-67
2022/12/26 06:58:50;;;;;;;4.50;3.53;;;13.80;99.90;;;;;;5017136;28;20480;-67
2022/12/26 07:01:18;;;;;;;4.33;3.70;;;13.70;99.90;;;;;;5020770;28;20442;-67
2022/12/26 07:03:44;;;;;;;9.10;4.43;;;13.70;99.90;;;;;;5016211;28;20428;-67
2022/12/26 07:06:17;;;;;;;6.10;4.10;;;13.60;99.90;;;;;;5019393;28;20467;-67
2022/12/26 07:08:42;;;;;;;4.70;3.57;;;13.60;99.90;;;;;;5015326;28;20439;-67
2022/12/26 07:11:20;;;;;;;4.87;3.43;;;13.60;99.90;;;;;;5013789;28;20454;-67
2022/12/26 07:13:45;;;;;;;6.33;4.30;;;13.50;99.90;;;;;;5019846;28;20192;-67
2022/12/26 07:16:12;;;;;;;4.93;3.87;;;13.40;99.90;;;;;;5015104;28;20560;-68
2022/12/26 07:18:37;;;;;;;8.30;3.83;;;13.40;99.90;;;;;;5021583;28;20501;-68
2022/12/26 07:21:08;;;;;;;8.70;3.80;;;13.40;99.90;;;;;;5017969;28;20442;-69
2022/12/26 07:23:33;;;;;;;4.97;3.70;;;13.50;99.90;;;;;;5018650;28;20215;-68
2022/12/26 07:25:59;;;;;;;6.40;4.03;;;13.50;99.90;;;;;;5016884;28;20459;-68
2022/12/26 07:28:25;;;;;;;4.00;3.60;;;13.60;99.90;;;;;;5014342;28;20188;-68
2022/12/26 07:30:51;;;;;;;5.47;3.87;;;13.50;99.90;;;;;;5014268;28;20199;-68
2022/12/26 07:33:17;;;;;;;4.87;3.90;;;13.50;99.90;;;;;;5015515;28;20967;-68
2022/12/26 07:35:43;;;;;;;5.50;3.87;;;13.50;99.90;;;;;;5015719;28;20216;-68
2022/12/26 07:38:09;;;;;;;5.10;3.90;;;13.60;99.90;;;;;;5018163;28;20180;-68
2022/12/26 07:40:35;;;;;;;5.77;4.07;;;13.50;99.90;;;;;;5017206;28;20444;-68
2022/12/26 07:43:00;;;;;;;5.10;4.20;;;13.60;99.90;;;;;;5016184;28;20450;-68
2022/12/26 07:45:26;;;;;;;4.80;3.90;;;13.60;99.90;;;;;;5017126;28;20200;-68
2022/12/26 07:47:55;;;;;;;7.60;4.53;;;13.50;99.90;;;;;;5017709;28;20262;-68
2022/12/26 07:50:22;;;;;;;5.33;4.50;;;13.50;99.90;;;;;;5017521;28;20216;-67
2022/12/26 07:52:48;;;;;;;7.90;4.40;;;13.40;99.90;;;;;;5015822;28;20470;-68
2022/12/26 07:55:13;;;;;;;5.10;4.13;;;13.40;99.90;;;;;;5010342;28;20467;-68
2022/12/26 07:57:39;;;;;;;6.57;4.30;;;13.30;99.90;;;;;;5016987;28;20355;-68
2022/12/26 08:00:05;;;;;;;6.83;5.13;;;13.30;99.90;;;;;;5017201;28;20177;-68
2022/12/26 08:02:31;;;;;;;6.43;4.73;;;13.30;99.90;;;;;;5021687;28;20180;-68
2022/12/26 08:04:56;;;;;;;4.90;4.00;;;13.30;99.90;;;;;;5016674;28;20467;-67
2022/12/26 08:07:22;;;;;;;5.50;4.13;;;13.30;99.90;;;;;;5018223;28;20219;-67
2022/12/26 08:09:48;;;;;;;5.47;4.30;;;13.30;99.90;;;;;;5016625;28;21071;-67
2022/12/26 08:12:13;;;;;;;5.30;4.60;;;13.20;99.90;;;;;;5016775;28;20184;-68
2022/12/26 08:14:40;;;;;;;6.23;4.37;;;13.20;99.90;;;;;;5017082;28;20204;-67
2022/12/26 08:17:06;;;;;;;4.67;3.90;;;13.10;99.90;;;;;;5022952;28;20187;-67
2022/12/26 08:19:31;;;;;;;6.40;5.03;;;13.10;99.90;;;;;;5015975;28;20439;-68
2022/12/26 08:21:57;;;;;;;5.17;3.80;;;13.00;99.90;;;;;;5015119;28;20191;-68
2022/12/26 08:24:23;;;;;;;5.97;3.83;;;12.90;99.90;;;;;;5016413;28;20701;-68
2022/12/26 08:26:48;;;;;;;5.07;4.00;;;12.80;99.90;;;;;;5015141;28;20752;-68
2022/12/26 08:29:14;;;;;;;5.10;4.00;;;12.80;99.90;;;;;;5015506;28;20979;-68
2022/12/26 08:31:39;;;;;;;5.53;4.30;;;12.70;99.90;;;;;;5014867;28;20565;-69
2022/12/26 08:34:05;;;;;;;5.67;4.10;;;12.70;99.90;;;;;;5015916;28;20263;-68
2022/12/26 08:36:31;;;;;;;5.53;4.60;;;12.70;99.90;;;;;;5021109;28;20202;-68
2022/12/26 08:38:57;;;;;;;5.50;4.83;;;12.70;99.90;;;;;;5013749;28;20185;-68
2022/12/26 08:41:22;;;;;;;6.70;4.43;;;12.70;99.90;;;;;;5012390;28;20182;-68
2022/12/26 08:43:50;;;;;;;6.20;4.90;;;12.60;99.90;;;;;;5013880;28;20534;-70
2022/12/26 08:46:16;;;;;;;4.90;3.90;;;12.70;99.90;;;;;;5012345;28;20211;-69
2022/12/26 08:48:43;;;;;;;5.37;4.13;;;12.70;99.90;;;;;;5014675;28;20833;-68
2022/12/26 08:51:18;;;;;;;7.23;4.30;;;12.80;99.90;;;;;;5013541;28;20481;-69
2022/12/26 08:53:48;;;;;;;5.00;3.83;;;12.80;99.90;;;;;;5014645;28;21136;-69
2022/12/26 08:56:16;;;;;;;4.70;3.83;;;12.80;99.90;;;;;;5015195;28;20509;-68
2022/12/26 08:58:43;;;;;;;4.50;3.63;;;12.70;99.90;;;;;;5013916;28;20972;-68
2022/12/26 09:01:13;;;;;;;4.57;4.10;;;12.70;99.90;;;;;;5015825;28;20506;-68
2022/12/26 09:03:39;;;;;;;7.50;4.07;;;12.70;99.90;;;;;;5017312;28;21006;-68
2022/12/26 09:06:05;;;;;;;6.90;3.87;;;12.70;99.90;;;;;;5019536;28;20468;-68
2022/12/26 09:08:33;;;;;;;6.23;4.10;;;12.70;99.90;;;;;;5018346;28;20449;-68
2022/12/26 09:11:08;;;;;;;6.60;4.27;;;12.80;99.90;;;;;;5012602;28;20449;-68
2022/12/26 09:13:35;;;;;;;5.10;3.63;;;12.90;99.90;;;;;;5010211;28;20443;-67
2022/12/26 09:16:04;;;;;;;3.90;2.80;;;12.90;99.90;;;;;;5008229;28;20482;-67
2022/12/26 09:18:30;;;;;;;6.13;3.30;;;12.90;99.90;;;;;;5017482;28;20422;-67
2022/12/26 09:20:59;;;;;;;5.80;3.00;;;13.00;99.90;;;;;;5013560;28;20427;-67
2022/12/26 09:23:25;;;;;;;4.70;3.60;;;13.00;99.90;;;;;;5014085;28;20207;-67
2022/12/26 09:25:51;;;;;;;6.50;5.20;;;13.00;99.90;;;;;;5016492;28;20537;-68
2022/12/26 09:28:16;;;;;;;5.00;4.07;;;13.00;99.90;;;;;;5015574;28;20497;-68
2022/12/26 09:30:43;;;;;;;4.70;4.03;;;12.90;99.90;;;;;;5012236;28;20196;-68
2022/12/26 09:33:09;;;;;;;4.63;3.70;;;12.90;99.90;;;;;;5011589;28;20192;-68
2022/12/26 09:35:39;;;;;;;5.10;3.33;;;13.00;99.90;;;;;;5018724;28;20474;-67
2022/12/26 09:38:04;;;;;;;4.80;3.20;;;13.00;99.90;;;;;;5021440;28;20229;-68
2022/12/26 09:40:50;;;;;;;4.97;3.00;;;13.00;99.90;;;;;;5019323;28;20497;-67
2022/12/26 09:43:52;;;;;;;3.17;2.77;;;13.00;99.90;;;;;;5016380;28;20192;-68
2022/12/26 09:46:29;;;;;;;4.80;2.70;;;13.00;99.90;;;;;;5016862;28;20458;-68
2022/12/26 09:49:10;;;;;;;7.70;3.30;;;13.00;99.90;;;;;;5016482;28;20438;-69
2022/12/26 09:51:38;;;;;;;3.43;3.13;;;12.90;99.90;;;;;;5016166;28;20447;-68
2022/12/26 09:54:10;;;;;;;4.50;3.20;;;13.00;99.90;;;;;;5021715;28;20658;-69
2022/12/26 09:56:38;;;;;;;9.63;3.70;;;12.90;99.90;;;;;;5016931;28;21005;-68
2022/12/26 09:59:16;;;;;;;4.97;4.10;;;12.80;99.90;;;;;;5016660;28;20993;-67
2022/12/26 10:01:42;;;;;;;4.57;3.97;;;12.80;99.90;;;;;;5017633;28;20456;-68
2022/12/26 10:04:19;;;;;;;4.93;4.20;;;12.90;99.90;;;;;;5012695;28;21258;-68
2022/12/26 10:06:53;;;;;;;5.67;4.90;;;12.80;99.90;;;;;;5016117;28;20263;-68
2022/12/26 10:09:34;;;;;;;5.80;4.10;;;12.80;99.90;;;;;;5017479;28;20445;-68
2022/12/26 10:12:10;;;;;;;6.00;4.37;;;12.80;99.90;;;;;;5016868;28;20442;-68
2022/12/26 10:14:45;;;;;;;8.60;7.70;;;12.80;99.90;;;;;;5011431;28;21164;-68
2022/12/26 10:17:21;;;;;;;6.80;4.17;;;12.70;99.90;;;;;;5008535;28;20463;-69
2022/12/26 10:19:56;;;;;;;6.03;4.40;;;12.80;99.90;;;;;;5012489;28;20439;-68
2022/12/26 10:22:47;;;;;;;5.63;4.00;;;12.80;99.90;;;;;;5008078;28;20454;-68
2022/12/26 10:25:17;;;;;;;8.57;4.50;;;12.90;99.90;;;;;;5018594;28;20430;-68
2022/12/26 10:27:47;;;;;;;6.07;4.90;;;12.90;99.90;;;;;;5014796;28;20462;-68
2022/12/26 10:30:26;;;;;;;6.70;4.20;;;12.80;99.90;;;;;;5012604;28;20431;-70
2022/12/26 10:33:00;;;;;;;8.40;4.83;;;12.80;99.90;;;;;;5016227;28;20514;-69
2022/12/26 10:35:37;;;;;;;4.63;4.20;;;12.90;99.90;;;;;;5015146;28;20864;-68
2022/12/26 10:38:19;;;;;;;5.03;4.23;;;12.90;99.90;;;;;;5021100;28;20438;-69
2022/12/26 10:40:47;;;;;;;6.80;4.70;;;12.90;99.90;;;;;;5016251;28;20852;-68
2022/12/26 10:43:31;;;;;;;8.40;6.07;;;12.90;99.90;;;;;;5019205;28;20446;-66
2022/12/26 10:45:57;;;;;;;6.00;4.43;;;12.80;99.90;;;;;;5009763;28;21129;-65
2022/12/26 10:48:25;;;;;;;8.47;4.07;;;12.80;99.90;;;;;;5014075;28;20464;-66
2022/12/26 10:50:51;;;;;;;7.17;4.87;;;12.90;99.90;;;;;;5012438;28;20185;-66
2022/12/26 10:53:17;;;;;;;5.10;4.60;;;12.90;99.90;;;;;;5017453;28;20435;-66
2022/12/26 10:55:43;;;;;;;6.90;4.40;;;12.90;99.90;;;;;;5007509;28;20213;-68
2022/12/26 10:58:32;;;;;;;5.07;4.57;;;12.90;99.90;;;;;;5016699;28;20185;-68
2022/12/26 11:01:31;;;;;;;4.93;4.43;;;12.90;99.90;;;;;;5010124;28;20491;-66
2022/12/26 11:04:15;;;;;;;6.13;4.80;;;12.90;99.90;;;;;;5013438;28;21246;-66
2022/12/26 11:06:42;;;;;;;11.30;4.63;;;12.90;99.90;;;;;;5012803;28;20455;-66
2022/12/26 11:09:31;;;;;;;7.43;4.50;;;12.90;99.90;;;;;;5010448;28;20883;-67
2022/12/26 11:11:57;;;;;;;6.17;4.23;;;12.90;99.90;;;;;;5008003;28;20469;-67
2022/12/26 11:14:36;;;;;;;6.97;4.23;;;12.80;99.90;;;;;;5017613;28;20458;-67
2022/12/26 11:17:08;;;;;;;5.97;4.30;;;12.90;99.90;;;;;;5026653;28;20519;-68
2022/12/26 11:19:40;;;;;;;3.70;3.10;;;12.90;99.90;;;;;;5008061;28;20462;-68
2022/12/26 11:22:26;;;;;;;4.00;3.37;;;12.90;99.90;;;;;;5011548;28;20474;-68
2022/12/26 11:25:19;;;;;;;5.50;3.10;;;13.00;99.90;;;;;;5013534;28;20526;-68
2022/12/26 11:27:54;;;;;;;5.17;3.20;;;13.00;99.90;;;;;;5012385;28;20497;-68
2022/12/26 11:30:24;;;;;;;4.87;2.63;;;13.00;99.90;;;;;;5013447;28;20522;-70
2022/12/26 11:33:21;;;;;;;5.20;2.73;;;13.10;99.90;;;;;;5013402;28;20526;-67
2022/12/26 11:35:55;;;;;;;3.63;2.47;;;13.00;99.90;;;;;;5011682;28;21034;-68
2022/12/26 11:38:38;;;;;;;2.97;2.43;;;13.00;99.90;;;;;;5011961;28;20435;-68
2022/12/26 11:43:57;;;;;;;6.50;2.90;;;13.00;99.90;;;;;;5012785;28;20924;-66
2022/12/26 11:46:33;;;;;;;4.43;2.77;;;13.00;99.90;;;;;;5012880;28;20933;-66
2022/12/26 11:48:59;;;;;;;3.23;2.50;;;12.90;99.90;;;;;;5013183;28;20445;-66
2022/12/26 11:51:40;;;;;;;3.03;2.10;;;12.90;99.90;;;;;;5014646;28;20458;-66
2022/12/26 11:54:19;;;;;;;3.00;2.20;;;12.90;99.90;;;;;;4997630;28;20545;-66
2022/12/26 11:56:44;;;;;;;2.30;1.97;;;12.90;99.90;;;;;;5018994;28;20462;-66
2022/12/26 11:59:22;;;;;;;2.50;2.00;;;12.90;99.90;;;;;;5013090;28;21102;-66
2022/12/26 12:02:09;;;;;;;2.63;1.83;;;12.90;99.90;;;;;;5010851;28;20192;-66
2022/12/26 12:04:34;;;;;;;3.37;2.30;;;12.90;99.90;;;;;;5015216;28;20976;-68
2022/12/26 12:07:12;;;;;;;3.03;2.03;;;12.90;99.90;;;;;;5013719;28;20454;-67
2022/12/26 12:10:09;;;;;;;2.17;1.60;;;12.90;99.90;;;;;;5016689;28;20180;-66
2022/12/26 12:12:57;;;;;;;3.13;1.80;;;13.00;99.90;;;;;;5016186;28;21018;-67
2022/12/26 12:15:30;;;;;;;2.83;2.10;;;12.90;99.90;;;;;;5014874;28;20514;-67
2022/12/26 12:18:38;;;;;;;2.40;1.90;;;13.00;99.90;;;;;;5010502;28;21059;-67
2022/12/26 12:21:18;;;;;;;2.57;1.67;;;12.90;99.90;;;;;;5003350;28;20976;-67
2022/12/26 12:24:06;;;;;;;3.10;2.03;;;12.90;99.90;;;;;;5011529;28;20423;-67
2022/12/26 12:26:39;;;;;;;2.63;1.60;;;12.90;99.90;;;;;;5018733;28;20455;-67
2022/12/26 12:29:20;;;;;;;2.83;1.73;;;12.90;99.90;;;;;;5018964;28;20509;-67
2022/12/26 12:31:53;;;;;;;2.00;1.60;;;12.90;99.90;;;;;;5019144;28;20442;-67
2022/12/26 12:34:40;;;;;;;3.10;2.00;;;13.00;99.90;;;;;;5014955;28;20447;-67
2022/12/26 12:37:22;;;;;;;2.37;1.70;;;13.00;99.90;;;;;;5015774;28;20454;-67
2022/12/26 12:40:03;;;;;;;2.50;1.80;;;12.90;99.90;;;;;;5015730;28;20438;-67
2022/12/26 12:42:51;;;;;;;2.10;1.83;;;12.90;99.90;;;;;;5016464;28;20455;-67
2022/12/26 12:45:32;;;;;;;2.60;1.80;;;12.80;99.90;;;;;;5021745;28;20928;-66
2022/12/26 12:48:14;;;;;;;2.37;1.90;;;12.70;99.90;;;;;;5017423;28;20441;-66
2022/12/26 12:51:24;;;;;;;2.90;1.90;;;12.60;99.90;;;;;;5013942;28;20452;-66
2022/12/26 12:54:31;;;;;;;2.50;1.80;;;12.50;99.90;;;;;;5009929;28;20952;-66
2022/12/26 12:57:27;;;;;;;2.43;1.90;;;12.50;99.90;;;;;;5017392;28;20449;-67
2022/12/26 13:00:14;;;;;;;2.63;1.83;;;12.50;99.90;;;;;;5013629;28;20523;-67
2022/12/26 13:03:10;;;;;;;2.53;1.83;;;12.50;99.90;;;;;;5012719;28;20432;-67
2022/12/26 13:05:51;;;;;;;2.40;1.90;;;12.50;99.90;;;;;;5010425;28;22081;-67
2022/12/26 13:08:48;;;;;;;2.47;1.60;;;12.50;99.90;;;;;;5012069;28;20430;-67
2022/12/26 13:11:19;;;;;;;4.17;2.97;;;12.50;99.90;;;;;;5012620;28;20482;-67
2022/12/26 13:14:13;;;;;;;2.27;2.07;;;12.50;99.90;;;;;;5016454;28;20440;-67
2022/12/26 13:16:46;;;;;;;3.70;2.20;;;12.50;99.90;;;;;;5027296;28;20861;-67
2022/12/26 13:19:16;;;;;;;3.13;1.80;;;12.50;99.90;;;;;;5013833;28;20470;-67
2022/12/26 13:21:43;;;;;;;2.20;1.90;;;12.50;99.90;;;;;;5018989;28;20423;-67
2022/12/26 13:24:30;;;;;;;2.50;2.00;;;12.60;99.90;;;;;;5016442;28;20845;-67
2022/12/26 13:26:58;;;;;;;3.57;2.20;;;12.50;99.90;;;;;;5017750;28;20474;-67
2022/12/26 13:29:29;;;;;;;2.50;2.00;;;12.40;99.90;;;;;;5015644;28;20416;-67
2022/12/26 13:31:57;;;;;;;6.70;3.30;;;12.50;99.90;;;;;;5017903;28;20970;-67
2022/12/26 13:34:24;;;;;;;3.37;2.57;;;12.60;99.90;;;;;;5018855;28;20525;-67
2022/12/26 13:36:57;;;;;;;3.43;2.13;;;12.60;99.90;;;;;;5013904;28;20524;-67
2022/12/26 13:39:25;;;;;;;3.33;2.30;;;12.70;99.90;;;;;;5017133;28;20485;-67
2022/12/26 13:44:37;;;;;;;3.97;2.20;;;12.70;99.90;;;;;;5017369;28;20437;-67
2022/12/26 13:47:03;;;;;;;3.40;2.53;;;12.70;99.90;;;;;;5013629;28;20463;-67
2022/12/26 13:49:35;;;;;;;2.67;1.97;;;12.70;99.90;;;;;;5018234;28;20739;-68
2022/12/26 13:52:10;;;;;;;3.83;2.10;;;12.70;99.90;;;;;;5014571;28;21344;-68
2022/12/26 13:55:05;;;;;;;4.60;2.63;;;12.70;99.90;;;;;;5017400;28;20454;-67
2022/12/26 13:57:39;;;;;;;2.67;1.70;;;12.80;99.90;;;;;;5007887;28;20469;-67
2022/12/26 14:00:44;;;;;;;4.20;2.03;;;12.80;99.90;;;;;;5019291;28;20507;-67
2022/12/26 14:03:53;;;;;;;2.83;2.03;;;12.80;99.90;;;;;;5017895;28;20422;-68
2022/12/26 14:06:52;;;;;;;4.77;2.00;;;12.80;99.90;;;;;;5016890;28;20489;-68
2022/12/26 14:09:49;;;;;;;4.40;3.00;;;12.80;99.90;;;;;;5011202;28;20427;-67
2022/12/26 14:12:40;;;;;;;3.20;2.60;;;12.90;99.90;;;;;;5014056;28;20451;-67
2022/12/26 14:15:23;;;;;;;7.60;2.83;;;12.80;99.90;;;;;;5015722;28;21120;-67
2022/12/26 14:18:20;;;;;;;4.47;3.00;;;12.80;99.90;;;;;;5016927;28;20457;-67
2022/12/26 14:20:53;;;;;;;3.87;2.53;;;12.70;99.90;;;;;;5011557;28;20443;-67
2022/12/26 14:23:31;;;;;;;5.17;3.13;;;12.60;99.90;;;;;;5013629;28;20488;-67
2022/12/26 14:26:27;;;;;;;4.17;3.60;;;12.60;99.90;;;;;;5017089;28;20553;-67
2022/12/26 14:29:15;;;;;;;5.93;3.20;;;12.60;99.90;;;;;;5016792;28;20474;-67
2022/12/26 14:32:25;;;;;;;5.20;3.87;;;12.60;99.90;;;;;;5020864;28;20450;-67
2022/12/26 14:35:15;;;;;;;3.50;3.20;;;12.60;99.90;;;;;;5003840;28;20470;-67
2022/12/26 14:38:05;;;;;;;3.87;3.43;;;12.50;99.90;;;;;;5021474;28;20530;-66
2022/12/26 14:40:37;;;;;;;4.07;2.80;;;12.30;99.90;;;;;;5019767;28;20419;-67
2022/12/26 14:43:12;;;;;;;11.43;3.83;;;12.30;99.90;;;;;;5018503;28;20415;-66
2022/12/26 14:45:49;;;;;;;4.50;3.03;;;12.30;99.90;;;;;;5022393;28;20604;-67
2022/12/26 14:48:15;;;;;;;3.33;2.93;;;12.30;99.90;;;;;;5018936;28;20458;-67
2022/12/26 14:50:44;;;;;;;5.43;3.40;;;12.30;99.90;;;;;;5018211;28;20431;-66
2022/12/26 14:53:31;;;;;;;6.07;3.63;;;12.30;99.90;;;;;;5017197;28;20227;-66
2022/12/26 14:56:02;;;;;;;4.67;3.70;;;12.30;99.90;;;;;;5014560;28;20870;-66
2022/12/26 14:58:37;;;;;;;5.63;3.07;;;12.40;99.90;;;;;;5018750;28;20940;-67
2022/12/26 15:01:11;;;;;;;4.30;3.33;;;12.30;99.90;;;;;;5017807;28;20470;-67
2022/12/26 15:04:05;;;;;;;3.70;2.40;;;12.40;99.90;;;;;;5021247;28;20426;-66
2022/12/26 15:06:46;;;;;;;5.00;2.40;;;12.50;99.90;;;;;;5017654;28;20454;-67
2022/12/26 15:09:30;;;;;;;2.40;2.00;;;12.40;99.90;;;;;;5017649;28;20434;-67
2022/12/26 15:12:24;;;;;;;2.80;2.40;;;12.40;99.90;;;;;;5018431;28;20456;-67
2022/12/26 15:15:04;;;;;;;3.73;2.17;;;12.30;99.90;;;;;;5014883;28;21042;-67
2022/12/26 15:17:45;;;;;;;5.63;3.00;;;12.30;99.90;;;;;;5022598;28;20464;-67
2022/12/26 15:20:45;;;;;;;2.50;2.03;;;12.30;99.90;;;;;;5015623;28;20427;-67
2022/12/26 15:23:47;;;;;;;3.83;2.70;;;12.30;99.90;;;;;;5016923;28;20439;-67
2022/12/26 15:26:36;;;;;;;2.70;2.10;;;12.30;99.90;;;;;;5018307;28;20454;-67
2022/12/26 15:29:14;;;;;;;2.77;2.00;;;12.40;99.90;;;;;;5011057;28;20435;-67
2022/12/26 15:31:44;;;;;;;4.00;2.53;;;12.50;99.90;;;;;;5019055;28;20887;-67